SMRA00 UAOL 211200
AAXX 21121
01001 11X05 92513 11091 21102 39870 49882 53014 69971 78682 222// 01003 333 91125=
01002 46/// /1010 11025 21039 39879 49887 56018 333 91111=
01003 11684 80906 11029 21051 39866 49880 58014 60001 70322 885// 333 91108=
01006 46/// /3404 11036 21037 39877 49892 57009=
01007 11587 31302 11056 21092 39874 49884 57012 6//// 70210 81545 333 91103=
01008 11584 61201 11049 21082 39855 49891 58008 6//// 70321 81531 333 91108=
01009 46/// /1308 11034 21045 39906 49913 56017=
01010 16/// /1408 10032 21019 39914 49930 55029 69911=
01011 46/// /1414 11044 21056 39922 49933 56018 333 91115=
01015 46/// /1605 10036 21034 333 91111=
01016 46/// /1514 11026 21033 39888 49904 56021=
01017 46/// /0504 11056 21072 39881 49889 56012=
01020 46/// /0607 11020 21033 39875 49885 57010=
01023 11688 71103 10038 21064 39846 49939 58038 60001 70220 83576 333 91107=
01024 46/// /0000 11066 21094 39874 49888 57014=
01025 17/80 02104 10031 21026 39931 49943 58032 6//// 700// 333 91107=
01026 11688 52005 10038 21046 39801 49940 58034 60021 70281 81158 333 91108=
01028 11260 71405 10002 21006 39863 49883 57015 69901 70282 8689/ 333 91108=
01030 46/// /0604 11042 2//// 333 91116=
01033 46/// /1507 10032 21029 39913 49942 58020 333 91117=
01037 16/// /1903 10046 21060 39930 49954 58028 60001 333 91109=
01043 46/// /1405 10036 2//// 333 91110=
01044 16/// /2303 10042 21035 39948 49957 58014 6//// 333 91110=
01045 16/// /1605 10030 21064 60001 333 91112=
01046 46/// /1304 10035 21059 39947 49953 58021 333 91108=
01047 41987 61805 11055 21098 39607 49990 58018 70220 80008=
01049 16/// /1704 10036 21063 39960 49964 58015 6//// 333 91109=
01052 16/// /2004 10031 21037 39857 49954 58010 69911 333 91109=
01055 46/// /2111 10032 21040 39930 49947 58004 333 91119=
01057 41989 32301 11016 21074 70200 80005=
01058 16/// /2405 11018 21070 39506 49968 58018 60001 333 91110=
01059 46/// /1806 11004 21068 39967 49976 57010 333 91112=
01062 11470 82101 11016 21032 39896 49909 50001 69901 72274 885// 333 91111=
01064 46/// /1506 11065 21089 39267 49989 58011 333 91110=
01065 16/// /0903 11021 21072 39826 49989 57016 60001 333 91105=
01068 46/// /1807 10012 21024 39947 49965 58007 333 91110=
01074 46/// /1904 10016 21037 39949 49964 56011 333 91109=
01076 16/// /1502 11033 21083 39948 49989 58008 60001 333 91104=
01078 46/// /2106 10015 21037 39954 49964 57009 333 91110=
01082 16/// ///// 10019 21048 39930 49998 57016 60001=
01083 46/// /2405 11002 21042 39952 49969 58008 333 91111=
01086 46/// /2310 11040 21071 39786 49973 57011 333 91114=
01088 46/// /2207 11024 21047 39941 49989 57007 333 91109=
01089 46/// /1604 11019 21047 39887 49994 57015 333 91108=
01091 16/// /0407 11030 21047 60001 333 91114=
01092 46/// /3002 10013 21069 333 91111=
01098 16/// /2008 11019 21036 39957 49975 56009 60001 333 91113=
01099 46/// /2213 11030 21051 39963 49979 56013 333 91115=
01105 46/// /1507 10008 21010 333 91111=
01107 16/// /2919 10014 20002 39995 49998 53062 60081 333 91129=
01108 11450 62914 10029 2//// 30077 40088 51083 60011 78081 85262 333 91124=
01112 46/// /2809 10042 21038 30092 40102 51084 333 91120=
01114 41558 82814 10038 21015 30024 40034 53098 76065 8772/ 333 91127=
01115 16/// /2719 10030 21008 30009 40030 53089 60001 333 91131=
01116 46/// /2609 10032 21017 30068 40089 51094 333 91123=
01121 46/// /2812 10041 21021 30050 40062 51109 333 91127=
01122 16/// /3409 10029 21037 39988 40078 53081 60081 333 91119=
01124 16/// ///// 10037 21025 60021=
01132 16/// /2905 10018 21047 39702 40092 53070 60051 333 91117=
01133 16/// /2804 10020 21020 60111 333 91116=
01135 16/// /2711 10013 21021 39911 40063 53093 60101 333 91124=
01136 46/// /2823 10018 21051 333 91140=
01139 46/// /2612 10031 21011 39984 49989 53048 333 91127=
01141 16/// /2712 10028 20004 39921 49951 53004 60071 333 91122=
01144 46/// /3021 10041 21005 333 91133=
01146 16/// /2409 10028 21023 60001 333 91122=
01147 16/// /2811 10005 21041 60051 333 91122=
01148 16/// /2710 10031 21019 6//// 333 91119=
01150 11780 82209 10016 21025 60071 78376 8732/ 333 91128=
01151 46/// /2810 10026 21022 39949 40035 53078 333 91123=
01152 11358 82514 10039 21016 39985 40001 53060 60021 78082 888// 333 91125=
01158 16/// ///// 10033 21002 39987 49996 53041 60041=
01160 41480 81903 10008 20002 39935 49949 55002 78582 888// 333 91109=
01161 46/// /2104 10004 21002 39938 49949 55001 333 91109=
01162 46/// /1508 10019 20003 39934 49938 55015 333 91110=
01167 41581 81705 10041 21015 39929 49935 55022 78522 889// 333 91108=
01169 16/// ///// 10037 20001 39959 40004 53051 60011=
01180 16/// /1501 10036 21034 39879 49936 56029 69931 333 91106=
01183 46/// /1804 10027 21026 39910 49942 56025 333 91110=
01192 16/// /1703 10031 21060 60001 333 91110=
01198 16/// ///// 10015 21075 39699 49947 58042 60001=
01199 16/// /0804 11065 21084 39518 49993 56024 6//// 333 91107=
01203 46/// /2104 10050 20013 30158 40208 53037 333 91116=
01205 46/// /3005 10064 20013 30156 40202 53036 333 91111=
01209 46/// /2303 10045 20023 30112 40204 53032 333 91110=
01210 11580 83004 10070 20009 30171 40197 53035 6//// 70282 8626/ 333 91113=
01212 16/// /2809 10061 21027 30173 40191 51037 6//// 333 91119=
01214 46/// /2505 10062 21007 333 91116=
01217 46/// /2907 10072 21005 30188 40192 53035 333 91117=
01218 16/// /3502 10051 20007 30178 40200 51041 60031 333 91114=
01220 16/// /3301 11039 21053 60041 333 91118=
01221 16/// ///// 10029 21030 60021=
01223 46/// /2609 10063 21016 30105 40183 53037 333 91119=
01224 16/// ///// 10068 21011 60001=
01225 46/// /2813 10059 2//// 30170 40175 53036 333 91122=
01227 16/// ///// 10043 21050 6////=
01228 46/// /3012 10059 21010 30155 40163 51045 333 91122=
01230 16/// /2905 10031 21048 69961 333 91111=
01232 16/// /3204 10041 20011 30117 40197 51048 60041 333 91111=
01233 16/// /2806 10034 21055 60001 333 91113=
01234 16/// /2807 10067 21024 60011 333 91118=
01237 16/// /2608 10063 21004 30152 40168 53044 69911 333 91120=
01238 11475 32805 10008 2//// 39014 40165 51032 69921 70120 83240 333 91114=
01239 16/// /3304 11006 21061 60001 333 91120=
01240 46/// /2814 10057 21031 30125 40145 51055 333 91125=
01241 11580 22912 10064 20003 30151 40161 53045 69901 70221 82860 333 91121=
01242 16/// ///// 10063 21039 69921=
01245 16/// /2510 10032 21059 39448 40156 51039 60001 333 91117=
01250 46/// ///// 10049 21071=
01253 16/// /3505 10054 21044 69941 333 91112=
01254 16/// /3206 10070 20011 69941 333 91116=
01257 16/// /2907 10060 21026 39995 40156 53046 69921 333 91119=
01259 46/// /2915 10055 21030 30109 40132 51055 333 91121=
01262 46/// /2918 10047 21040 333 91131=
01265 16/// /3009 10044 21062 39579 40159 53046 60001 333 91116=
01270 16/// ///// 10067 21018 69991=
01271 17/74 43013 10065 21021 30133 40154 51046 60001 700// 333 91121=
01272 16/// ///// 10059 21006 6////=
01273 16/// /2903 10064 21022 39954 40150 51041 69941 333 91114=
01277 16/// /2806 10060 21035 69971 333 91114=
01281 16/// /2307 10035 21042 39930 40105 53063 60051 333 91120=
01282 46/// /2809 10052 21031 30118 40123 53065 333 91125=
01287 16/// ///// 10021 21042 69921=
01288 11580 42906 10026 21037 39406 40155 51041 60002 70221 81340 333 91116=
01290 46/// /2613 10055 21043 30119 40122 53062 333 91122=
01291 16/// /2909 10026 21014 60061 333 91116=
01293 16/// /2508 10054 21036 39936 40144 51048 60011 333 91120=
01298 41X60 82807 10012 21027 77072 8772/=
01300 41598 33006 10062 20016 40224 52035 71681 83900 22200 02053 10907 70034 333 91111=
01304 46/// /3306 10053 20027 30180 40212 53034 333 91108=
01307 46/// /2804 10072 20040 30197 40220 52032 333 91109=
01308 16/// ///// 10081 20047 60041=
01310 46/// /2903 10056 20036 30193 40208 53031 333 91108=
01311 17562 83106 10080 20048 30166 40228 53032 60031 700// 333 91110=
01314 16/// /0303 10077 20038 60091 333 91108=
01315 16/// /3203 10078 20051 60081 333 91107=
01317 11470 83007 10081 20042 30186 40230 53034 60041 70262 882// 333 91113=
01319 16/// ///// 10082 20042 60021=
01320 46/// /3304 10055 20018 30127 40201 51028 333 91112=
01321 16/// /3201 10054 20042 39940 40195 51030 60021 333 91109=
01323 46/// /2503 10048 20035 39814 40202 52024 333 91106=
01326 16/// ///// 10063 2//// 60021=
01327 16/// /2705 10039 20021 39663 40218 52027 60091 333 91109=
01332 16/// /0102 10034 20027 60041 333 91103=
01338 11450 72704 10061 20039 30130 40197 53026 60011 71582 8569/ 333 91110=
01344 16/// ///// 10035 20007 60081=
01345 16/// /2805 10021 21020 60081 333 91115=
01346 16/// /2711 11003 21020 60041 333 91121=
01347 46/// /2508 10033 20033 39590 40193 52023 333 91115=
01350 16/// /2811 11008 21017 38773 40186 53024 60031 333 91119=
01352 16/// /2811 10006 21001 60021 333 91117=
01355 16/// ///// 10079 20049 30182 40187 53020 60041=
01357 46/// /3007 10065 21031 39211 40149 53023 333 91122=
01358 46/// ///// 10080 21020 39435 40146 53026=
01359 11686 22508 10051 21016 39252 40158 53023 69921 70280 81541 333 91117=
01360 41580 70903 10033 20005 71688 87900=
01361 16/// /3106 10000 21038 39144 40183 53030 69981 333 91112=
01362 46/// /2414 11051 2//// 38024 40152 51018 333 91129=
01364 16/// /2713 10024 21029 39044 40164 52017 60021 333 91117=
01365 16/// /2506 10034 21032 60001 333 91117=
01366 16/// /2509 11021 21026 38545 40176 51020 60001 333 91114=
01367 46/// /2607 10094 21019 39714 40149 53028 333 91113=
01368 46/// /3009 10067 21044 39191 40148 53026 333 91117=
01370 16/// /3303 10061 21055 39058 40131 53030 60001 333 91114=
01373 11689 43104 10122 21020 39954 40154 53022 60001 70220 83101 333 91113=
01375 46/// /3010 10032 21038 333 91115=
01376 16/// /2806 10126 21002 60001 333 91110=
01378 16/// /3104 10109 21015 39844 40130 53017 60001 333 91110=
01380 11789 43107 10041 21046 6//// 70200 83501 333 91113=
01381 16/// ///// 10093 20014 60001=
01382 16/// ///// 10093 20005 60001=
01383 46/// /3206 10079 21018 39832 40142 53020 333 91109=
01384 11889 42006 10083 20019 51006 60001 70211 84058=
01385 16/// /2204 10110 20021 39871 40137 52008 60001 333 91107=
01386 16/// ///// 10112 20012 60001=
01387 16/// ///// 10054 21014 60001=
01389 16/// /3203 10110 21007 39834 40137 52012 60001 333 91108=
01392 16/// /1503 10119 20024 39917 40138 52004 60001 333 91107=
01397 16/// /3103 10108 21000 39703 40130 53014 60001 333 91110=
01400 41997 42511 10084 20067 40275 51022 70300 80005 22200 06068 10703 70015 333 91116=
01403 11958 73106 10072 20065 30169 40239 53033 60011 71065 86018 333 91113=
01406 46/// /2605 10068 20062 30209 40229 53032 333 91112=
01408 46/// /2905 10076 20069 30204 40237 53032 333 91110=
01411 16/// ///// 10067 2//// 30207 40235 52027 6////=
01412 16/// /3006 10060 20060 30209 40241 52022 60001 333 91109=
01413 16/// /3205 10075 20071 69961 333 91110=
01414 46/// /3004 10069 2//// 333 91110=
01415 17156 83005 10077 20071 30226 40237 52024 60011 723// 333 91111=
01416 16/// ///// 10082 20073 60031=
01417 16/// ///// 10092 20059 60141=
01418 16/// ///// 10076 2//// 60001=
01419 16/// /2303 10066 20043 60211 333 91108=
01422 16/// /2502 10083 20075 60111 333 91109=
01424 11570 8//// 10092 20038 30218 40221 53025 60121 70262 885//=
01425 11140 81902 10091 20091 30148 40229 53018 6//// 76165 886// 333 91105=
01426 46/// /2810 10066 2//// 333 91113=
01427 16/// /2909 10070 20067 30219 40235 53013 60001 333 91111=
01430 16/// ///// 10097 20082 60001=
01431 16/// /2302 10069 20035 39555 40218 53020 6//// 333 91104=
01434 16/// /2504 10064 21043 39213 40173 51025 69991 333 91111=
01435 16/58 /2812 10027 2//// 39034 40192 53029 60091 333 91122=
01436 11117 82809 10070 20066 6//// 75052 886// 222// 00060 333 91114=
01439 41350 82601 10075 2//// 71065 886//=
01440 46/// /2713 10016 2//// 38921 40212 52024 333 91118=
01441 16/// /2607 10048 20011 39207 40190 52025 69941 333 91114=
01442 16/// /3204 10118 20043 39953 40207 52014 60001 333 91112=
01444 16/// /1803 10107 20021 60001 333 91112=
01447 16/// /3007 10098 20013 39514 40172 52018 60001 333 91112=
01448 46/// /2410 10071 20059 30211 40221 53011 333 91113=
01449 16/// /2604 10142 20034 60001 333 91108=
01450 16/// /2606 10050 21002 39041 40177 52019 60001 333 91113=
01452 16/// /2506 10133 20081 30195 40216 53012 60001 333 91112=
01453 16/// /2306 10123 20050 60001 333 91112=
01455 16/// /2803 10123 20022 39883 40187 52014 60001 333 91110=
01459 41485 62607 10131 20060 70221 85441=
01460 46/// /2208 10102 2//// 333 91110=
01462 16/// /2304 10144 20044 60001 333 91108=
01463 16/// ///// 10113 20060 69911=
01464 16/// /2404 10145 20082 60001 333 91109=
01465 16/// /2709 10136 20091 30190 40204 53009 60001 333 91114=
01466 46/// /0201 10121 20046 30030 40160 51007 333 91104=
01467 46/// /2408 10145 20049 30187 40192 52008 333 91113=
01468 16/// /2902 10121 20039 60001 333 91106=
01470 16/// /3201 10147 20035 30060 40171 53006 60001 333 91104=
01471 16/// /1001 10126 20022 60001 333 91103=
01473 11789 12603 10143 20023 39957 40163 52012 6//// 70200 81100=
01477 16/// /1902 10137 20035 60001 333 91105=
01478 46/// /2213 10072 2//// 333 91115=
01480 16/// /1101 10130 20052 60001 333 91102=
01481 16/// /2003 10128 20068 30146 40177 52008 60001 333 91110=
01482 46/// /2311 10073 20051 30169 40179 51011 333 91117=
01484 16/// /1804 10106 20062 30006 40159 50009 60001 333 91109=
01486 16/// ///// 10135 20047 60001=
01488 16/// /0601 10119 20036 60001 333 91108=
01489 16/// ///// 10116 20034 60001=
01490 16/// /2205 10083 20028 60001 333 91109=
01492 11587 32502 10122 20044 30045 40161 51008 60001 70120 81138 333 91105=
01493 16/// /2305 10096 20058 6//// 333 91112=
01494 17/73 02205 10123 20066 30110 40174 53006 60001 700// 333 91112=
01495 16/// /2310 10062 2//// 30164 40177 53009 60001 333 91117=
02705 46/// /1710 11041 21042 39421 40022 58014 91200 555 799// 0/412=
02714 47980 22005 10032 21012 39922 40064 57022 700// 82/// 91200 555 773// 83030 0/206=
02717 47/70 81902 11028 21042 724// 91200 555 790// 0/404=
02719 46/// /1906 11019 21033 91200 555 61024 790// 0/006=
02721 47782 71808 10042 21001 30035 40044 57038 70000 87/// 91200 555 774// 0/509=
02722 46/// ///// 11035 21047 91200 555 791//=
02725 46/// /1905 10050 21003 91200 555 768// 0/005=
02726 47983 01703 11050 21056 39522 49989 58030 700// 91200 555 796// 0/404=
02727 46/// /1804 10025 20000 30020 40121 58019 91200 555 60014 784// 0/104=
02732 46/// /2106 10028 21004 39996 40100 58010 91200 555 779// 0/207=
02733 46/// /2605 10052 21013 30074 40133 58009 91200 555 763// 0/105=
02734 46/// /2505 10054 21009 30034 40128 57007 91200 555 764// 0/005=
02735 46/// /1906 10057 21028 91200 555 754// 0/206=
02736 46/// /2303 10056 21014 39982 40119 58008 91200 555 761// 0/404=
02737 46/// /1906 10038 20000 39956 40060 58031 91200 555 60021 776// 0/207=
02738 47981 72005 10050 21015 39886 40074 58021 700// 87/// 91200 555 60023 763// 83370 0/206=
02739 47483 71803 10015 21015 39884 40085 58010 700// 87/// 91200 555 780// 0/604=
02741 47378 82404 10066 20053 30112 40128 57014 70000 88/// 91200=
02743 46/// /2108 10031 20025 91200 555 795// 0/309=
02745 46/// /2203 11008 21033 39767 40035 57014 91200 555 783// 0/505=
02746 46/// /2311 10028 20021 30108 40142 57017 91200 555 795// 0/011=
02747 46/// /1806 10023 20010 30122 40129 57014 91200 555 792// 0/508=
02751 47771 32007 10017 20008 30101 40107 57012 70000 81/// 91200 555 793// 0/510=
02752 46/// /1907 10011 21001 30069 40096 57007 91200 555 792// 0/612=
02753 47981 12104 10049 21011 39947 40100 57021 70000 80/// 91200 555 765// 85400 0/206=
02754 46/// ///// 10067 21008 30014 40119 57026 91200=
02755 47979 71907 10048 21017 39963 40059 57030 70000 87/// 91200=
02757 47761 72309 10023 20015 30114 40144 57019 700// 85/// 91200 555 795// 0/312=
02758 46/// /1903 10064 20008 30074 40126 57026 91200 555 767// 0/404=
02759 47982 52004 10046 20011 30107 40136 57019 70000 85/// 91200 555 60030 778// 0/105=
02761 47969 12010 10024 20008 30078 40113 57012 70000 80/// 91200 555 790// 0/512=
02763 47983 6//// 10070 21011 30001 40105 57030 700// 80/// 91200 555 756//=
02765 46/// /1606 10029 21003 91200 555 779// 0/206=
02766 46/// /2403 11008 21021 39815 40108 52002 91200 555 791// 0/304=
02769 47799 52007 10037 21008 39970 40088 57020 70000 85/// 91200=
02772 46/// /2305 10042 21005 30018 40117 58010 91200 555 771// 0/305=
02773 47479 82103 10054 20023 30119 40130 57014 70000 88/// 91200=
02777 47880 82305 10054 20001 39979 40129 57022 70000 88/// 91200 555 768// 82010 0/505=
02778 47960 0//// 10053 21004 30023 40121 57008 70021 91200 555 767//=
02780 46/// /2011 10024 21007 30067 40071 57017 91200 555 780// 0/412=
02781 46/// /2110 10015 2//// 30065 40070 57015 91200 555 7//// 0/011=
02787 47970 7//// 10052 21009 39866 40075 57032 70000 87/// 91200 555 765//=
02788 46/// /2104 10041 21010 39982 40094 57014 91200 555 770// 0/205=
02789 47480 52304 10016 21011 39894 40099 57004 700// 85/// 91200=
02790 47369 82306 10051 20032 30096 40126 57015 70000 88/// 91200=
02791 46/// /2202 10019 21008 91200 555 782// 0/103=
02793 46/// /0000 10013 20005 30012 40112 57008 91200 555 794// 0/601=
02794 46/// ///// 10031 20019 91200 555 792//=
02795 47373 72209 10024 20012 30131 40144 57018 70000 86/// 91200 222// 00010 555 60018 792// 80230 0/210=
02796 46/// /2003 10007 21015 91200 555 785// 0/305=
02799 47499 72302 10007 21025 39838 40083 57008 70087 87/// 91200 555 779// 80390 0/204=
02800 46/// /1809 10017 21005 30011 40040 57032 91200 555 785// 0/109=
02801 47982 10501 11003 21070 39374 49957 57034 70082 81/// 91200=
02803 46/// /2005 10046 21011 39987 40048 58026 91200 555 766// 0/005=
02804 47/70 72104 11002 21026 700// 91200 555 61012 784// 0/305=
02805 47799 31604 11022 21073 39855 49991 57011 70082 83/// 91200=
02807 47499 82104 11024 21047 39825 40010 700// 88/// 91200=
02813 46/// /1603 11005 21026 39893 40027 57026 91200 555 786// 0/504=
02814 47377 82005 11016 21021 39772 40032 57018 70087 88/// 91200=
02815 46/// /2102 11009 21026 91200 555 788// 0/303=
02816 47382 81803 11028 21036 39707 40018 57014 70087 88/// 91200 555 794// 0/004=
02817 46/// /2108 11046 21050 39467 40009 57011 91200 555 61046 797// 0/410=
02818 46/// /2304 11019 21046 39695 40011 57009 91200 555 61028 782// 0/607=
02820 46/// /2004 11054 21062 39078 40004 57022 91200 555 794// 0/411=
02821 47/78 /1806 11040 21045 39311 49993 57021 70087 91200 555 797// 0/608=
02823 47981 61703 11020 21043 39700 49995 58034 700// 86///=
02824 469// 71403 11015 21042 39567 49997 57023 87/// 91200 555 782// 0/506=
02825 46/// /1903 11040 21083 39956 49987 57012 91200 555 772// 0/604=
02827 46/// /2204 11002 21046 91200 555 772// 0/206=
02828 46/// ///// 10030 20030 30123 40131 56017 91200 555 700//=
02831 46/// /2204 10032 21003 91200 555 778// 0/405=
02833 46/// /2106 10065 21015 30034 40073 57028 91200 555 757// 0/208=
02834 47981 52104 10030 21005 39829 40083 57017 700// 85/// 91200 555 778// 83750 0/004=
02835 47999 01904 10003 21039 39849 40001 57011 700// 91200=
02836 47382 71804 11017 21034 39797 40021 57018 70086 87/// 91200=
02844 47683 71305 11003 21026 39900 40007 57033 70087 87/// 91200=
02845 47/70 ///// 11010 21026 700// 91200=
02847 47381 71803 10002 21026 39923 40026 57026 70072 87/// 91200 555 782// 80270 0/404=
02849 47470 81705 11004 21024 39763 40036 58016 700// 88/// 91200=
02851 47982 71803 10038 21008 30035 40049 58024 700// 87/// 91200=
02862 47781 51809 10000 21007 30028 40033 57029 70021 83/// 91200=
02863 46/// /1910 10002 21014 30005 40026 58031 91200=
02866 47483 71703 10011 21013 39904 40056 57021 70076 85/// 91200=
02868 46/// /2407 11030 21032 91200 555 799// 0/308=
02869 47399 82305 11012 21033 39724 40055 700// 88/// 91200 555 786// 80280 0/405=
02872 47/80 /1804 10029 21003 30042 40048 57030 70000 91200 555 780// 0/210=
02873 47980 51811 10000 21011 30034 40045 57028 70000 85/// 91200=
02874 46/// /2106 10022 21005 91200 555 783// 0/006=
02876 47/80 /1807 10023 21010 30044 40049 57026 70000 91200 555 779// 0/107=
02880 47880 51803 10006 21016 30015 40026 57029 700// 91200=
02883 47482 22104 10022 21014 39878 40078 58015 700// 82/// 91200=
02889 47982 12303 10010 21028 39791 40067 57010 70072 80/// 91200=
02897 47999 62104 10024 21020 39910 40076 700// 86/// 91200=
02907 46/// /1806 10017 21002 30037 40043 57035 91200=
02910 46/// /2109 10031 20004 30049 40056 57025 91200=
02913 47781 72006 10066 21015 30015 40064 58034 700// 83///=
02915 47981 61302 10045 20005 39926 40087 57021 70000 86/// 91200=
02917 47580 22304 10034 21014 39978 40101 700// 82/// 91200=
02920 46/// /1810 10037 21005 30028 40050 57034 91200=
02924 47970 2//// 10066 21029 39886 40085 58030 700// 80/// 91200=
02926 47980 02305 10050 20011 30096 40109 57012 700// 91200=
02929 47482 72303 10022 21007 39959 40110 700// 87/// 91200 555 781// 80396 0/404=
02935 47980 72002 10055 21009 39930 40102 57021 700// 87/// 91200=
02937 47581 32405 10061 20004 30066 40114 56018 700// 82/// 91200 555 60036 767// 0/306=
02939 47382 82304 11005 21020 39920 40116 52002 70087 88/// 91200=
02942 42980 72005 10052 21010 39953 40102 56024 70322 83018 555 60027 764//=
02943 46/// /1906 10059 21019 39984 40105 57031 91200 555 757// 0/107=
02944 47999 11905 10063 21013 39960 40106 700// 80/// 91200=
02945 47/99 /1904 10049 21015 39928 40106 700// 555 763// 0/405=
02947 47981 02304 10063 21013 39996 40119 58013 700// 91200=
02948 47981 02403 10049 21009 30001 40118 700// 91200 555 766// 0/104=
02950 46/// /2005 10034 20034 30127 40132 57018 91200 555 700// 0/408=
02955 47981 32403 10050 21006 39990 40094 57011 70000 83/// 91200=
02957 47699 82007 10041 21016 30059 40071 56020 700// 88/// 91200=
02958 47981 02305 10045 21007 30001 40132 700// 91200=
02959 47999 02403 10054 21004 30003 40132 57011 700// 91200 555 766// 0/403=
02963 47783 32106 10052 20004 39994 40122 57023 70000 81///=
02964 47969 72106 10037 20022 30112 40119 57014 70000 87/// 91200=
02965 47983 12002 10073 21021 30030 40126 57020 70000 80/// 91200=
02966 47999 02303 10054 21018 30009 40134 700// 91200 555 60024 760// 0/405=
02967 47981 02507 10020 20003 30141 40145 58011 700// 91200=
02974 42899 71805 10052 20018 30069 40136 57022 70222 87070=
02976 47980 52305 10025 20007 30128 40144 58014 700// 80/// 91200=
02978 47473 32204 10038 20017 30135 40140 57019 70000 81/// 91200=
02979 46/// /2313 10030 20026 30115 40135 57018 91200=
02980 47461 82209 10032 20026 30115 40128 57014 70000 88/// 91200=
02981 47362 82209 10035 20025 30129 40139 57016 700// 88/// 91200=
02982 46/// /2311 10031 20024 30134 40146 57016 91200=
02983 47983 5//// 10063 20003 39993 40132 57026 70000 85/// 91200 555 766//=
02984 47364 72510 10027 20017 30128 40141 57021 70000 87/// 91200=
02987 46/// /2309 10029 20011 30116 40145 57016 91200=
02991 46/// /2309 10023 20013 30110 40143 57017 91200=
02992 47/70 52305 10028 20010 30141 40146 58013 700// 91200=
02993 46/// /2408 10041 20037 30100 40119 57013 91200=
03002 15973 /2822 10077 20009 30217 40235 53033 60001 333 8//99 90710 91129=
03005 11674 22820 10079 21006 30139 40241 51028 69921 70281 81202 333 55310 21803 81830 90710 91126=
03008 15977 /2711 10083 20017 30182 40257 52030 69901 333 8//99=
03010 46/// /2306 10093 20051 40263 52023=
03017 15971 /2611 10098 20026 30232 40264 51025 69941 333 55310 21782 85/70=
03026 15484 /1910 10094 20073 30251 40269 53017 60001 333 55301 20974 81/17 85/27=
03031 15584 /2307 10096 20060 39940 40268 50008 69981 333 55301 21398 81/27=
03034 15484 /2108 10105 20072 30259 40272 53013 69961 333 82/17=
03039 46/// /2012 10035 20035=
03044 16/// /1710 10106 20060 30165 40264 51012 69941 333 55300 21496=
03047 15581 /2704 10104 20068 39980 40284 51015 69921 333 553// 20928 87/21=
03062 15484 /1409 10088 20064 30269 40274 51018 69901 333 553// 20895 87/14 84/23=
03063 15684 /2305 10126 20066 39994 40269 51015 69941 333 55307 21540 83/35=
03065 46/// /2713 10027 20027 333 90710 91134=
03066 17380 /1007 10095 20085 30268 40275 51017 60041 723// 333 55303 21158 82/06=
03068 11370 71305 10090 20071 30269 40278 51020 60031 72165 875// 333 81708 83628 87646=
03075 15666 /2606 10103 20030 30223 40267 51020 69921 333 81/36=
03080 17982 /2606 10143 20081 30096 40265 51017 69901 723// 333 85/63=
03088 15483 /0206 10118 20096 30112 40275 52023 60001 333 553// 21383 84/14 84/24=
03091 17382 /0307 10107 20086 30198 40278 52022 60011 723// 333 55302 21117 82/08 86/64=
03105 17460 /2604 10099 20097 30276 40294 52009 69941 710// 333 87/12=
03111 16229 /2803 10101 20098 30281 40294 51010 60001 333 88/03=
03132 15476 /2114 10131 20113 30291 40304 50002 60001 333 83/15=
03134 17257 /2410 10117 20106 30218 40291 51011 69981 710// 333 55302 21324 87/05=
03136 15482 /2213 10118 20095 30265 40298 51013 60001 333 55300 20562 86/13 84/17=
03144 17484 /2312 10131 20103 30240 40283 51016 69901 723// 333 553// 20950 81/14 85/27=
03148 46/// /2609 10065 20054=
03153 16/// /2317 10100 20089 30167 40307 51007 69921 333 55300 20992=
03155 16382 /2414 10115 20102 39997 40295 53013 60001 333 86/08 85/15=
03158 15584 /2215 10133 20097 30152 40289 51007 60001 333 55300 21093 87/21 86/29=
03162 17343 /2009 10101 20095 30019 40308 52010 69941 757// 333 55300 20378 88/06=
03166 15583 /2412 10131 20104 30219 40288 51011 60001 333 55301 20728 83/23 87/42=
03171 15583 /2517 10141 20104 30266 40278 51012 60001 333 55301 20959 82/24 86/31=
03204 12480 72411 10119 20093 30300 40320 51004 60001 875// 333 55300 21121 81617 87622=
03210 16469 /2010 10095 20093 30168 40322 51006 60001 333 86/14 86/17 85/21=
03212 155// /2605 10128 20085 30216 40315 51004 60001 333 88/20=
03214 17484 /2308 10102 20087 30304 40323 51004 60001 720// 333 88/19=
03220 16489 ///// 10126 20091 30277 40312 51007 60001 333 87/16 85/47=
03224 15281 /2615 10101 20093 39959 40307 51006 60001 333 88/05=
03225 16489 /2408 10127 20094 30005 40311 50001 60001 333 55303 21210 82/10=
03226 15484 /2607 10119 20089 30034 40310 51002 60001 333 88/16=
03227 46/// /2518 10058 20058=
03230 16489 /2414 10123 20090 30039 40296 52005 60001 333 84/10 90710 91125 91025=
03238 15482 /2709 10146 20089 30123 40295 52009 60001 333 83/18 90710 91126=
03240 15983 /2513 10162 20104 30262 40290 51007 60001 333 55310 22409 8//99=
03257 12584 42607 10146 20082 30273 40313 51004 60001 84801 333 55310 22198 81824 84625=
03265 15577 /2809 10146 20087 30283 40314 51003 60001 333 84/24=
03266 13581 52611 10142 20090 30300 40317 53006 60001 85801 333 81820 85627=
03275 155// /2510 10156 20104 30113 40304 51003 60001 333 81/20=
03281 16/// /2609 10146 20085 60001=
03292 165// /2710 10165 20095 30289 40307 50001 60001 333 81/23=
03301 16368 /2011 10116 20100 30257 40331 58001 60001 333 83/08 87/22=
03302 11182 71911 10106 20105 30314 40329 58001 60001 70242 875// 333 55300 21245 81702 87622=
03305 15480 /2611 10109 20088 30068 40333 55000 60001 333 81/10 88/15=
03313 16484 /3503 10120 20088 30236 40331 51002 60001 333 88/18=
03316 15584 /1803 10110 20082 30321 40332 51004 60001 333 87/24=
03318 16/// /2308 10099 20087 60001=
03321 15582 /2403 10137 20086 30320 40332 51004 60001 333 55301 21137 88/22=
03330 15372 /2906 10107 20089 39969 40333 51008 60001 333 83/09 87/15=
03344 15480 /2909 10104 20081 30005 40325 52006 60001 333 88/13=
03346 16/// /2914 10102 20074 60001=
03351 15581 /2905 10122 20092 30289 40332 51004 60001 333 55300 20415 87/20=
03354 15573 /2608 10128 20090 30190 40333 52004 60001 333 55300 21032 88/21=
03373 16480 /2810 10131 20092 30257 40327 53006 60001 333 88/18=
03377 12481 72708 10132 20087 30244 40329 53005 60001 878// 333 55300 20985 82818 87624=
03379 12580 72610 10133 20087 30254 40331 53004 60001 878// 333 83820 87625=
03382 15580 /2711 10143 20087 30306 40315 50005 60001 333 55306 21721 83/23=
03385 46580 /2710 10136 20085 30313 40323 53005 333 88/22=
03391 11580 72709 10139 20082 30321 40328 53005 60001 70242 874/1 333 87623=
03392 16581 /2907 10144 20102 30324 40328 52004 60001 333 87/24=
03405 16067 /2109 10091 20091 30222 40341 50000 60001 333 55301 21179 87/01 88/23 555 77098=
03409 16/// /2507 10105 20089 30133 40335 50003 60001 333 55300 2////=
03410 16279 /2407 10091 20080 39894 40335 51007 60001 333 55300 20859 88/05=
03414 12582 72206 10124 20090 30245 40334 51005 60001 875// 333 55300 21158 87620=
03462 15482 /2906 10137 20091 30239 40328 52006 60001 333 55307 21797 87/18=
03469 15582 /3209 10143 20094 30327 40331 52003 60001 333 553// 21639 84/21 85/27=
03482 11460 72504 10134 20098 30308 40333 52002 60001 70242 875// 333 81710 87638=
03488 15667 /3009 10135 20097 30304 40330 53003 60001 333 55300 2//// 87/37=
03502 17061 /2707 10082 20081 30176 40342 54000 60001 720// 333 55300 20584 87/01 555 77457=
03503 15480 /2307 10118 20083 30261 40339 57001 60001 333 88/15=
03507 15268 /2505 10092 20092 39965 40342 57001 69901 333 88/03=
03520 16484 /2403 10127 20085 30216 40338 54000 60001 333 55300 20935 88/17=
03522 15478 /2908 10133 20088 30248 40341 58001 60001 333 83/17=
03529 15377 /2604 10117 20088 30302 40346 52003 60001 333 88/09=
03535 15477 /2606 10129 20087 30216 40333 51003 60001 333 553// 21008 88/19=
03544 15482 /2205 10121 20096 30206 40337 52002 60001 333 553// 21200 81/10 88/14=
03560 15481 /2306 10122 20095 30233 40338 53003 60001 333 553// 21306 88/10=
03590 11475 72706 10124 20092 30225 40335 51002 69901 70152 876// 333 55300 21336 87714=
03604 16287 /2103 10096 20093 30289 40344 54000 60001 333 88/04=
03609 16/// /2406 10094 20093 30299 40353 52001 69941=
03647 16381 /2405 10106 20087 30080 40338 51004 60001 333 553// 20843 88/06=
03649 12370 82804 10111 20088 30241 40343 51003 60001 886// 333 55300 2//// 88709=
03658 12475 82605 10113 20090 30273 40343 51002 60001 886// 333 88710=
03660 15269 /3105 10101 20080 30092 40343 51004 60001 333 88/05=
03672 12481 72805 10131 20088 30299 40340 50000 60001 875// 333 87618=
03693 15480 /2408 10122 20088 30336 40338 58001 60001 333 55300 2//// 88/16=
03707 15282 /3007 10109 20097 30341 40349 52001 69921 333 88/05=
03710 16159 /2804 10098 20096 39921 40346 51001 60001 333 55300 20705 88/02 555 77098=
03716 15280 /2808 10105 20097 30284 40345 52001 69961 333 55301 21256 85/03 87/11=
03740 163// /2506 10108 20082 30167 40345 51003 60001 333 55300 20859 88/08=
03743 11380 82506 10113 20086 30182 40345 50000 69901 70252 888// 333 81809 88611=
03746 12480 72905 10113 20085 30191 40346 50001 60001 876// 333 87711=
03749 11481 72804 10109 20084 30234 40346 51001 69921 70252 875// 333 87610=
03761 11480 82404 10111 20085 30198 40343 54000 69901 70252 886// 333 55300 20769 88711=
03768 16481 /2703 10119 20089 30263 40343 51001 60001 333 88/14=
03769 15482 /2503 10115 20078 30260 40342 54000 60001 333 55300 20664 88/13=
03770 16/// ///// 10129 20086 60001=
03772 15482 /2604 10129 20087 30310 40341 51001 60001 333 55300 20826 88/17=
03781 15483 /2404 10109 20087 30133 40342 51001 60001 333 553// 20793 88/10=
03796 46/// /2407 10094 20088 30199 40344 58001=
03797 15474 /2904 10112 20078 30282 40343 54000 60001 333 55300 20742 88/14=
03803 15183 /1707 10108 20108 30309 40347 58001 69921 333 81/02 87/08=
03808 11220 81906 10106 20101 30240 40348 58001 69921 75154 887// 333 55300 20972 88703=
03809 11062 72404 10106 20096 30255 40349 58002 69901 70252 876// 333 81701 84704 87707=
03823 15166 /1704 10103 20103 30100 40346 50000 69921 333 553// 20943 88/02=
03827 15383 /2104 10119 20100 30289 40351 58002 60001 333 85/07 87/27=
03840 15270 /2703 10102 20089 30039 40348 54000 60001 333 88/04=
03853 11370 82601 10119 20090 30324 40348 57001 69901 70252 885// 333 55300 20744 81706 83712 85620=
03857 15169 /3104 10106 20100 30286 40351 50000 60001 333 82/02 88/15=
03862 15479 /2902 10124 20088 30333 40345 57001 60001 333 55300 20674 88/16=
03866 16/// /2806 10096 20093 30321 40346 54000 60001=
03872 15475 /2205 10109 20085 30341 40346 58001 60001 333 553// 20908 88/15=
03876 16/// /2107 10110 20093 30342 40344 58002 60001=
03882 15473 /2404 10117 20081 30280 40344 58002 60001 333 55300 20909 88/15=
03894 31025 70604 10112 20094 40351 58002 74042 875// 333 81700 85705 87625=
03895 15584 /2804 10111 20087 30244 40349 58002 60001 333 55300 20825 88/23=
03901 15483 /2014 10124 20102 30206 40295 50000 69901 333 55307 21439 87/16=
03904 15482 /2012 10127 20105 30233 40293 51002 69941 333 87/12=
03907 15684 /2311 10126 20110 30284 40291 52002 69901 333 55300 20853 87/31=
03911 17381 /2207 10108 20095 30026 40301 51004 69921 723// 333 88/07=
03915 15482 /2107 10124 20099 30215 40293 51005 60001 333 88/12=
03916 17342 /2508 10119 20113 30105 40295 51006 69921 710// 333 553// 20915 81/07 86/18=
03917 15478 /2209 10130 20103 30224 40301 51002 60001 333 55300 20944 88/12=
03923 15483 /2210 10128 20100 30104 40300 51002 60001 333 86/10 87/59=
03951 17261 /2304 10106 20101 30303 40329 58003 69921 70331 88/// 333 88/05=
03952 17082 /2005 10110 20103 30278 40329 55003 69931 70353 87/// 333 82/01 87/10=
03953 17281 /1806 10110 20092 30287 40318 58005 69921 70151 87/// 333 87/06=
03955 11381 82305 10108 20094 30127 40326 58004 69911 72052 886// 333 86708 86716=
03956 17256 /2204 10104 20090 30252 40330 58004 60001 7101/ 88/// 333 88/06=
03961 17481 /1802 10121 20085 30246 40323 58007 69901 70181 88/// 333 87/16 88/19=
03962 11482 71604 10120 20079 30292 40316 57006 69901 70252 876// 333 87719=
03963 17136 /2007 10101 20096 30278 40306 58001 69911 7101/ 87/// 333 87/03 87/17=
03966 15482 /2003 10116 20085 30224 40317 58004 60001 88/// 333 85/16 88/19=
03967 11480 72404 10118 20084 30206 40320 58002 69901 70252 876// 333 87718=
03969 11482 72304 10117 20077 30217 40322 58001 69901 70265 876// 333 81716 85718 87622=
03970 16/// /2107 10118 20083 30219 40303 54000 69911=
03971 17482 /2103 10118 20088 30190 40313 58002 69941 70381 88/// 333 81/14 85/17 88/21=
03973 11482 72006 10111 20087 30046 40302 57001 69901 70242 875// 333 85711 86650=
03976 17250 /1909 10104 20102 30276 40288 57001 69981 71065 88/// 333 88/04=
03978 17468 /1805 10129 20101 30250 40293 58001 69921 70181 87/// 333 87/14=
03979 17478 /2204 10120 20093 30208 40305 50001 60001 7031/ 88/// 333 83/12 85/17 88/25=
03980 17257 /2202 10103 20101 30262 40288 50002 69961 7101/ 88/// 333 87/04 88/43=
04005 26/// /2801 11026 21062 40025 52014 333 11025 21028 69927=
04013 42265 72111 11010 21020 40024 52007 82620 555 3//14=
04018 41482 52221 10013 21029 40051 52008 71581 83961 555 3//30 81917 83647 85070=
04030 41481 62008 10009 21029 40059 53005 71582 85903 555 3//16 82610 84924 85645=
04038 36/// /2320 10026 21025 40072 52011 333 10029 20019=
04048 26/// /2219 10017 333 10017 20015 69907=
04063 42582 41908 10028 21042 40045 52016 83440 555 3//10=
04064 26/// /0705 11014 21030 40096 52008 333 11012 21014 69917=
04073 42689 21818 11017 21045 40062 51005 81443 555 3//24=
04077 26/// /2115 10008 21074 40036 52003 333 10011 20006 69907=
04085 42789 11928 10014 21069 40055 52001 81040 555 3//28=
04097 42589 41918 10028 21080 40079 52004 81242 555 3/319=
06011 07363 71307 10047 20010 30121 40191 52013 60041 78186 333 55300 20284 60027 81/09 85/25 87/31=
06030 05/70 /2519 10109 20090 30232 40248 52003 69911 333 69917=
06060 05475 82415 10133 20093 30207 40272 52003 6///1 333 6///7 83/14 88/50=
06070 05/67 /2510 10133 20098 30240 40271 52002 6///1 333 6///7 91118=
06120 01235 82417 10093 20085 30266 40292 52001 6///1 71022 885// 333 6///7 88706 91130=
06180 05363 82315 10098 20077 30278 40285 54000 69921 333 6///7 88/08=
06193 07120 82422 10057 20056 30271 40282 57005 6///1 71031 333 55300 20461 6///7 88/02=
06201 47057 02506 10081 20069 30271 40316 53008 710// 80000 333 546// 90760 91007 91109=
06203 47366 82006 10084 20069 30287 40339 56001 70200 8//// 333 83/08 85/09 88/11 91007 91108 91207 555 51107 51206=
06204 47/01 92606 10067 20066 3//// 4//// 5//// 73331 333 89/00 91007 91111 91210 555 51108 51207=
06205 47669 62509 10088 20075 30238 40298 53007 70300 8//// 333 86/38 91010 91112 91210 555 51110 51209=
06206 47/07 92306 10065 20062 30284 40320 51007 73481 89/// 333 546// 89/00 90760 91007 91109=
06207 47150 72407 10080 20074 30298 40336 50007 710// 87/// 333 546// 85/03 87/04 90760 91008 91112=
06208 47470 82307 10097 20070 30288 40338 53005 72381 8//// 333 88/15 91008 91110 91208 555 51110 51208=
06211 47/01 /2206 10068 20067 30267 40324 53004 73331 333 91008 91112 91210 555 51109 51207=
06212 47468 81807 10083 20072 30275 40339 53004 70300 8//// 333 84/11 88/14 91008 91110 91209 555 51108 51207=
06225 46/// /2206 333 91007 91109 91207 555 51108 51207=
06229 46/// /2107 333 91008 91109 91208 555 51109 51207=
06235 17366 82206 10094 20078 30338 40338 52001 60001 70200 8//// 333 81/08 88/09 91009 91110 91207 555 51109 51207 53064=
06239 47650 72608 10080 20071 30276 40306 53009 710// 87/// 333 546// 87/40 90760 91009 91113=
06240 17257 82004 10092 20084 30350 40345 58003 69901 71010 8//// 333 88/05 91006 91108 91206 555 51106 51205 53030=
06242 47480 82309 10106 20073 30330 40334 53002 70200 8//// 333 87/16 88/80 91011 91112 91210 555 51111 51210=
06248 46/// /2205 333 91006 91108 91206 555 51107 51205=
06249 17/82 /2306 10097 20076 60001 70000 333 91008 91108 91206 555 51108 51206 53041=
06251 17/64 /2207 10099 20086 30335 40336 53003 60001 70000 333 91009 91110 91208 555 51109 51208 53140=
06252 46/// /2406 10070 20069 30294 40333 50005 333 546// 90760 91007 91111=
06257 16/// ///// 10089 20084 60001 555 53066=
06258 46/// /2206 48/// 333 546// 90760 91007 91108=
06260 07458 82403 10108 20074 30344 40348 58001 60001 710// 88/// 333 546// 55/// 20603 553// 20946 60005 87/13 88/16 90760 91004 91108=
06267 17366 82305 10092 20079 60001 70200 8//// 333 83/07 88/09 91007 91108 91205 555 51108 51205 53063=
06269 17459 82504 10109 20081 30351 40345 58001 60001 71031 8//// 333 83/13 88/16 91006 91109 91206 555 51107 51204 53088=
06270 07466 82406 10103 20077 30335 40337 53002 60001 702// 88/// 333 546// 55/// 20606 553// 20733 60005 88/12 90760 91008 91109=
06273 17/58 /2304 10092 20078 60001 71031 333 91006 91108 91206 555 51106 51204 53039=
06275 17460 52604 10124 20073 30289 40345 58002 60001 70331 8//// 333 83/19 85/21 91005 91108 91206 555 51108 51206 53167=
06277 16/// /2306 10106 20079 60001 333 91008 91110 91207 555 51109 51206 53073=
06278 16/// /2604 10123 20085 60001 333 91005 91107 91205 555 51107 51204 53164=
06279 17456 82504 10110 20082 30324 40344 58002 60001 71000 8//// 333 88/14 91007 91109 91206 555 51107 51205 53064=
06280 17458 82207 10107 20076 30334 40338 58001 60001 71000 8//// 333 88/11 91009 91111 91207 555 51109 51207 53067=
06283 16/// /2403 10141 20087 60001 333 91005 91107 91204 555 51107 51204 53194=
06286 16/// /2206 10108 20084 60001 333 91008 91110 91207 555 51108 51206 53053=
06290 07564 72304 10144 20080 30300 40343 58004 60001 703// 87/// 333 546// 55/// 20885 553// 21346 60005 87/25 90760 91006 91108=
06310 17459 82704 10101 20076 30338 40348 5//// 6///1 71000 8//// 333 84/13 88/15 91005 91107 91205 555 51105 51204 53081=
06319 17/67 /2504 10112 20080 30347 40349 58006 60001 70000 333 91005 91107 91204 555 51107 51204 53080=
06320 47/45 /2105 10085 20078 30316 40344 57003 71000 333 91006 91108 91207 555 51106 51205=
06321 47/62 /2105 10085 20073 30320 40344 56002 72300 333 91006 91110 91208 555 51106 51205=
06323 16/// /2404 10105 20073 30347 40349 58003 60001 333 91006 91107 91205 555 51107 51205 53082=
06330 16/// /2205 10100 20079 30332 40347 58002 60001 333 91007 91108 91206 555 51108 51205 53063=
06340 17463 82404 10105 20072 30331 40349 58004 60001 70231 8//// 333 84/12 88/14 91005 91107 91205 555 51107 51204=
06343 46/// /2505 333 91007 91107 91205 555 51107 51205=
06344 17474 82305 10103 20080 30353 40346 58004 60001 70200 8//// 333 84/12 88/15 91007 91107 91205 555 51107 51205 53075=
06348 17/56 /2304 10108 20082 30349 40348 58002 60001 71010 333 91006 91108 91206 555 51107 51205 53090=
06350 17461 72903 10118 20081 30335 40350 57003 60001 70200 8//// 333 85/15 87/17 91005 91107 91204 555 51107 51204 53155=
06356 16/// /2504 10107 20082 30349 40350 50000 60001 333 91006 91107 91205 555 51107 51205 53134=
06370 17559 12503 10142 20076 30320 40346 58005 69901 70400 8//// 333 81/24 91006 91107 91204 555 51107 51204 53224=
06375 17563 32604 10142 20080 30321 40346 58005 60001 70200 8//// 333 83/24 91005 91107 91205 555 51107 51205 53216=
06377 17968 09901 10150 20068 69901 70100 333 91003 91105 91202 555 51105 51202 53227=
06380 17980 00301 10145 20039 30206 40344 58006 60001 70100 333 91003 91106 91203 555 51104 51202 53222=
06391 16/// /9901 10158 20071 6///1 333 91004 91106 91203 555 51105 51203 53218=
06400 31363 82403 10098 20073 30344 40350 58001 70152 877// 333 82708 87710 91109 91207=
06407 12360 72503 10093 20067 30348 40354 50001 60001 876// 333 84708 86710 91105 91204=
06414 36/// /2703 10111 20086 30320 40353 58003 333 91106 91204=
06418 36/// /2104 10093 20082 30336 40353 56003 333 91107 91205=
06428 37464 /2603 10112 20067 30309 40352 58005 70030 333 87/18 91105 91203=
06432 37459 /3302 10119 20079 30279 40352 58007 70063 333 81/15 91104 91202=
06434 36/// /2602 10116 20084 30332 40352 58006 333 91105 91203=
06438 36/// /2602 10101 20078 30349 40356 58002 333 91105 91204=
06439 36/// /3102 10122 20084 30340 40352 58004 333 91106 91203=
06447 36/// /2802 10132 20076 30218 40343 58006 333 91104 91203=
06449 12570 43302 10129 20054 30118 40346 58004 60001 81101 333 81830 84075 91105 91203=
06450 12457 23002 10116 20077 30337 40353 58004 60001 82101 333 82816 91105 91203=
06451 12566 33302 10124 20077 30283 40351 58004 60001 81102 333 81824 83071 91105 91203=
06455 36/// /0602 10144 20017 30048 40333 57006 333 91104 91202=
06456 32570 29901 10131 20019 39998 40342 57004 81101 333 81828 91103 91202=
06458 42962 39901 10138 20059 30207 40345 58009 81101 333 81827 83075 91105 91202=
06459 36/// /3002 10134 20037 30152 40348 58006 333 91103 91202=
06464 36/// /2302 10145 20075 30322 40350 58007 333 91104 91203=
06465 32570 22002 10141 20053 30284 40347 57006 81101 333 81830 91104 91202=
06472 36/// /0401 10139 20020 39990 40348 58007 333 91103 91202=
06476 15978 09902 10116 21039 39674 40338 57004 6///1 333 91106 91204=
06477 36/// /2002 10152 20046 40350 333 91104 91202=
06478 12970 43402 10137 20032 30125 40344 58006 60001 80001 333 84070 91111 91204=
06479 32570 39901 10160 20058 30274 40347 57006 81101 333 81827 83080 91105 91203=
06484 46/// /1402 10140 21002 39945 40335 58009=
06490 15981 09902 10129 20016 39769 40338 57005 6///1 333 91106 91204=
06494 36/// /0502 10129 20013 39534 40327 58003 333 91105 91203=
06496 47/// ///// 1//// 2//// 3//// 4//// 5//// 7//// 333 91100 912//=
06590 12980 10504 10134 21016 39885 40335 58007 60001 80001 333 81070 91107 91205=
06601 02985 23604 10109 21042 39930 40314 57010 60001 333 54/01 55300 22628 60005 82076 90760 91110=
06602 06/// /0307 10115 21020 39780 40305 57009 60001 333 54/04 55300 22660 60005 90760 91116=
06604 06/// /0908 10108 21023 39725 40304 57007 60001 333 54/07 55300 22693 60005 90760 91121=
06605 06/// /1212 10023 21060 38482 48579 52009 60001 333 54/06 55300 22894 60005 90760 91142=
06609 06/// /1905 10073 21215 38094 48571 52007 60001 333 54/05 55300 22999 60005 90760 91107=
06610 06/// /3605 10098 21012 39719 40306 58007 60001 333 54/01 55300 22700 60005 90760 91110=
06612 06/// /1305 10079 21050 39109 48586 50000 60001 333 54/08 55300 22801 60005 90760 91113=
06616 06/// /0408 10090 21023 39598 40311 57004 60001 333 54/08 55300 22732 60005 90760 91118=
06617 06/// /0811 10070 21051 39071 48582 58000 60001 333 54/07 55300 22797 60005 90760 91119=
06618 06/// /0312 10093 21012 39784 40311 57006 60001 333 54/08 55300 22812 60005 90760 91118=
06619 06/// /1303 10033 21027 38902 48580 50002 60001 333 54/05 55300 22873 60005 90760 91121=
06621 06/// /0704 10102 21014 39786 40316 58008 60001 333 54/08 55300 22689 60005 90760 91110=
06623 06/// /0509 10083 21038 39462 48597 57001 60001 333 54/08 55300 22696 60005 90760 91121=
06624 06/// /0913 10121 21026 39812 40313 57007 60001 333 54/07 55300 22718 60005 90760 91124=
06627 06/// /1906 10095 21020 39094 48586 58003 60001 333 54/03 55300 22876 60005 90760 91111=
06628 06/// /0205 10055 21017 39082 48582 50001 60001 333 54/08 55300 22894 60005 90760 91111=
06631 06/// /0208 10097 21003 39645 40306 57007 60001 333 54/02 55300 22711 60005 90760 91117=
06633 02968 00504 10099 21034 39848 40316 57006 60001 8/000 333 54/00 55300 22693 60005 90760 91113=
06635 01958 10512 10099 21023 39730 40312 57006 60001 70500 333 54603 55300 22678 60005 81080 90760 91118=
06638 06/// /2707 10088 20002 39422 48589 57004 60001 333 54/02 55300 22714 60005 90760 91111=
06639 06/// /3605 10024 21038 38687 48581 52006 60001 333 54/05 55300 22848 60005 90760 91122=
06641 06/// /1313 10120 21008 39896 40309 58011 60001 333 54/03 55300 22639 60005 90760 91119=
06644 06/// /0605 10097 21008 39771 40317 58004 60001 333 54/09 55300 22686 60005 90760 91112=
06645 06/// /0810 10095 21028 39582 48596 57004 60001 333 54/09 55300 22772 60005 90760 91117=
06646 06/// /1104 10119 21018 39919 40312 58008 60001 333 54/03 55300 22642 60005 90760 91115=
06647 06/// ///// 10123 21024 39912 40315 57008 60001 333 54/04 55300 22718 60005=
06650 06/// /3504 10091 21015 39769 40318 57003 60001 333 54/01 55300 22675 60005 90760 91111=
06651 06/// /0408 10073 21009 39426 48588 57001 60001 333 54/02 55300 22725 60005 90760 91113=
06655 06/// /2310 10059 21023 39091 48584 50001 60001 333 54/01 55300 22862 60005 90760 91116=
06656 06/// /2604 39622 48/// 58005 60001 333 60005 90760 91108=
06657 06/// /0502 10090 21014 39748 40316 57004 60001 333 54/03 55300 22660 60005 90760 91105=
06659 06/// /1909 10093 21158 37969 48565 51005 60001 333 54/07 55300 22920 60005 90760 91116=
06660 06/// /0508 10096 21029 39647 40312 57004 60001 333 54/09 55300 22686 60005 90760 91118=
06664 06/// /0406 10107 21009 39780 40313 58006 60001 333 54/03 55300 22653 60005 90760 91115=
06666 06/// /0909 10120 21031 39900 40311 58007 60001 333 54/02 55300 22650 60005 90760 91119=
06669 46/// /02// 10053 21039 39315 48587 54001 333 54/06 55300 22700 90760 91120=
06670 02975 10909 10108 21011 39801 40314 57007 60001 80001 333 54/02 55300 22693 60005 81075 90760 91121=
06671 46/// /0807 39835 48/// 58008 333 90760 91116=
06672 02975 13107 10084 20003 39784 40316 57005 60001 333 54/00 55300 22740 60005 81080 90760 91110=
06673 06/// /3601 10082 21025 39731 40318 58003 60001 333 54/07 55300 22686 60005 90760 91105=
06674 06/// /0602 10092 21005 39783 40317 57005 60001 333 54/09 55300 22650 60005 90760 91109=
06675 06/// /3504 10049 21010 39237 48585 52003 60001 333 54/09 55300 22772 60005 90760 91110=
06676 46/// /2906 48/// 333 90760 91111=
06678 06/// /0904 10103 21020 39756 40317 58007 60001 333 54/03 55300 22646 60005 90760 91110=
06680 02989 11313 10016 21280 37601 47154 52003 60001 80001 333 54/05 55300 22970 60005 81068 90760 91118=
06681 06/// /0205 10072 21035 39392 48591 58000 60001 333 54/09 55300 22754 60005 90760 91111=
06682 02988 03306 10073 21061 39179 48587 57003 60001 8/000 333 54/00 55300 22830 60005 90760 91110=
06683 46/// /2606 39825 48/// 57005 333 90760 91107=
06685 06/// /3010 10097 21014 39687 40306 57008 60001 333 54/00 55300 22765 60005 90760 91119=
06686 06/// /3006 10116 21023 39711 40302 57009 60001 333 54/00 55300 22740 60005 90760 91121=
06687 46/// /2607 39802 48/// 57008 333 90760 91111=
06688 46/// /2407 10004 21187 37612 47149 52007 333 54/05 55300 23031 90760 91112=
06689 06/// /0604 10042 21024 38988 48586 52005 60001 333 54/06 55300 22862 60005 90760 91115=
06693 06/// /3107 10085 21008 39567 48591 57003 60001 333 54/03 55300 22704 60005 90760 91112=
06695 06/// /2117 10089 21131 38662 48595 51002 60001 333 54/04 55300 23078 60005 90760 91126=
06700 02984 00308 10099 21020 39809 40305 57008 60001 80000 333 54/01 55300 22732 60005 90760 91116=
06702 06/// /3407 10043 21065 38406 48580 51008 60001 333 54/08 55300 23028 60005 90760 91114=
06704 06/// /0607 10091 21035 39490 48588 57003 60001 333 54/07 55300 22747 60005 90760 91122=
06705 06/// /0706 10091 21010 39752 40305 57006 60001 333 54/06 55300 22650 60005 90760 91117=
06706 46/// /1405 48/// 333 90760 91117=
06708 06/// /3304 10072 21011 39324 48584 58002 60001 333 54/08 55300 22790 60005 90760 91110=
06709 46/// /3303 10062 21001 39858 40317 57007 333 54/05 90760 91107=
06712 02982 03406 10095 20003 39843 40305 58008 60001 8/000 333 54/01 55300 22848 60005 90760 91113=
06714 46/// /0616 11015 21266 37157 47141 53010 333 55300 23053 90760 91135=
06717 02989 02816 11009 21149 37608 47148 52002 60001 8/000 333 54/05 55300 23211 60005 90760 91126=
06720 06/// /2405 10134 21072 39710 40280 56021 60001 333 54/04 55300 22855 60005 90760 91109=
06722 06/// /2505 10086 21162 38246 48577 52003 60001 333 54/09 55300 23002 60005 90760 91110=
06723 46/// /1601 10002 21181 37370 47148 53008 333 54/05 55300 22387 90760 91109=
06724 06/// /1202 10105 21161 38665 48584 56001 60001 333 54/03 55300 23013 60005 90760 91109=
06727 06/// /2406 10144 21083 39520 48588 56022 60001 333 54/04 55300 22952 60005 90760 91111=
06730 42989 11818 11053 21282 36628 47145 50000 80001 333 54/05 55300 23074 81071 90760 91129=
06731 06/// /3403 10099 21015 39623 40302 57007 60001 333 54/04 55300 22736 60005 90760 91110=
06733 06/// /0609 10099 21025 39326 48585 58008 60001 333 54/04 55300 22819 60005 90760 91112=
06734 06/// /3404 10088 21042 39610 40300 58006 60001 333 54/00 55300 22747 60005 90760 91108=
06739 46/// /1110 11007 21242 37233 47156 52005 333 54/05 55300 23060 90760 91122=
06740 46/// /1214 10002 21380 37049 47150 53008 333 54/05 55300 23002 90760 91127=
06744 06/// /1711 10058 21191 38122 48587 52006 60001 333 54/06 55300 23071 60005 90760 91122=
06748 06/// /0505 10106 21162 38436 48577 56004 60001 333 54/04 55300 23053 60005 90760 91109=
06749 46/// /1407 11023 21237 37013 47145 52006 333 54/05 55300 23107 90760 91130=
06750 06/// /1511 10035 21173 37802 48582 51007 60001 333 54/05 55300 23092 60005 90760 91120=
06751 06/// /0101 10039 21106 38196 48599 52007 60001 333 54/09 55300 23179 60005 90760 91105=
06752 06/// /2005 10134 21015 39813 40315 58022 60001 333 54/02 55300 22707 60005 90760 91110=
06754 46/// /1903 10021 21074 37902 48597 52007 333 54/05 55300 23013 90760 91107=
06756 06/// /1705 10119 21048 39634 40316 58018 60001 333 54/02 55300 22815 60005 90760 91109=
06758 06/// /1803 10121 21045 39932 40322 58023 60001 333 54/04 55300 22804 60005 90760 91106=
06759 06/// /2003 10052 21038 38434 48598 50002 60001 333 54/09 55300 22938 60005 90760 91109=
06760 01962 11804 10129 21014 39874 40321 58019 60001 70500 80001 333 54600 55300 22779 60005 81075 90760 91108=
06762 06/// /2504 10131 21017 30078 40326 58024 60001 333 54/04 55300 22614 60005 90760 91108=
06770 02975 01503 10128 21029 39962 40324 57021 60001 8/000 333 54/09 55300 22693 60005 90760 91104=
06771 06/// /2003 10133 21033 39901 40323 57017 60001 333 54/04 55300 22812 60005 90760 91111=
06777 06/// /1606 10037 21050 38500 48601 50000 60001 333 54/08 55300 22873 60005 90760 91115=
06778 06/// /1206 10071 21199 38118 48589 52003 60001 333 54/04 55300 23150 60005 90760 91113=
06779 06/// /2408 10044 21093 38282 48593 57001 60001 333 54/04 55300 23049 60005 90760 91109=
06780 06/// /1510 10001 21202 37437 47157 51007 60001 333 54/05 55300 23035 60005 90760 91117=
06782 06/// /1202 10113 21092 38916 48596 58004 60001 333 54/04 55300 22934 60005 90760 91105=
06783 06/// /0601 10064 21118 38459 48600 50002 60001 333 54/04 55300 22992 60005 90760 91109=
06785 06/// /1004 10076 21169 38204 48586 51005 60001 333 54/08 55300 22923 60005 90760 91109=
06786 02970 00209 10140 21044 39631 40284 56017 60001 8/000 333 54/02 55300 22927 60005 90760 91120=
06787 06/// /2801 10126 21093 39141 48595 58016 60001 333 54/04 55300 22884 60005 90760 91104=
06788 06/// /2103 10091 21098 39049 48606 58006 60001 333 54/00 55300 22880 60005 90760 91108=
06791 06/// /0906 11050 21249 36870 47155 52008 60001 333 54/05 55300 23114 60005 90760 91127=
06793 06/// /3103 10076 21119 38522 48591 52002 60001 333 54/03 55300 23020 60005 90760 91112=
06794 02974 22105 10097 21074 39060 48606 57009 60001 80001 333 54/03 55300 22952 60005 82065 90760 91109=
06795 06/// /2001 10008 21214 37440 47159 52007 60001 333 54/05 55300 23096 60005 90760 91109=
06796 06/// /0903 10070 21093 38721 48598 57006 60001 333 54/01 55300 22970 60005 90760 91108=
06797 06/// /3301 10012 21182 37835 48599 52007 60001 333 54/05 55300 23128 60005 90760 91106=
06799 46/// /3003 10042 21243 37717 47168 52006 333 54/06 55300 23082 90760 91108=
06990 06/// /3306 10107 21022 39759 40308 57006 60001 333 54/09 55300 22714 60005 90760 91113=
07002 02660 82309 10097 20073 30265 40349 58003 60001 886// 333 60007 88733 90710 91113 92427 555 60005=
07003 04486 82305 10102 20078 30327 40352 58002 69901 700// 333 4/000 60007 90710 91109 555 60005=
07005 04/68 /3006 10099 20080 30262 40351 58003 60001 700// 333 4/000 60007 90710 91109 555 60005=
07010 02460 72207 10102 20076 30328 40348 58002 60001 875// 333 60007 87613 90710 91112 92427 555 60005=
07015 04569 82703 10124 20073 30290 40348 58005 60001 700// 333 4/000 60007 90710 91110 555 60005=
07020 01565 80000 10113 20092 30338 40349 58002 69921 70252 887// 333 60007 88726 90710 91103 555 60005=
07024 04386 83003 10111 20087 30183 40351 58003 69921 700// 333 4/000 69927 90710 91107 555 60005=
07027 04481 82802 10108 20071 30270 40353 58003 60001 700// 333 4/000 60007 90710 91107 555 60005=
07028 02560 83403 10096 20070 30223 40352 58004 60001 886// 333 60007 88720 90710 91105 92417 555 60005=
07031 04483 80105 10097 20068 30178 40354 58003 60001 700// 333 4/000 60007 90710 91108 555 60005=
07037 04586 83206 10115 20064 30162 40348 58005 60001 700// 333 4/000 60007 90710 91109 555 60005=
07038 04565 63405 10129 20071 30175 40343 58008 60001 700// 333 4//// 60007 90710 91110 555 60005=
07040 01456 83001 10094 20083 30303 40353 58002 60001 72022 887// 333 60007 88716 90710 91102 92426 555 60005=
07046 04483 83504 10096 20077 30241 40354 58003 60001 700// 333 4/000 60007 90710 91106 555 60005=
07055 04280 /0204 10132 20063 30220 40343 58008 60001 700// 333 4/000 60007 90710 91109 555 60005=
07057 04/69 /3607 10140 20068 30233 40340 58010 60001 700// 333 4//// 60007 90710 91113 555 60005=
07059 04568 /3103 10125 20065 30210 40347 58006 60001 700// 333 4//// 60007 90710 91110 555 60005=
07061 04/65 /0403 10132 20065 30223 40343 58008 60001 700// 333 4/000 60007 90710 91108 555 60005=
07072 04970 /0407 10143 20015 30219 40335 57012 60001 700// 333 4/000 60007 90710 91112 555 60005=
07075 04970 /2403 10153 20021 30158 40337 58012 60001 700// 333 4/000 60007 90710 91107 555 60005=
07093 04977 /0711 10139 21013 30017 40328 57008 60001 700// 333 4/000 60007 90710 91120 555 60005=
07100 06/// /0705 10136 20104 30260 40343 57004 60001 333 4//// 60007 90710 91109 555 60005=
07103 06/// /0102 1//// 2//// 3//// 4//// 6///1 333 4//// 6///7 90710 91106 555 6///5=
07107 02566 70406 1//// 2//// 3//// 4//// 6///1 875// 333 6///7 90710 91108 92427 555 6///5=
07110 04581 80000 10124 20075 30227 40347 58003 60001 700// 333 4/000 60007 90710 91103 555 60005=
07117 02470 80403 10113 20094 30278 40349 58003 60001 8855/ 333 60007 90710 91104 92428 555 60005=
07118 04569 80203 10111 20085 30243 40350 57004 60001 700// 333 4/000 60007 90710 91106 555 60005=
07120 04570 80703 10111 20088 30184 40350 58001 60001 700// 333 4/000 60007 90710 91107 555 60005=
07125 04482 80403 10117 20078 30271 40351 58002 60001 700// 333 4/000 60007 90710 91109 555 60005=
07130 04580 83608 10132 20081 30297 40342 58006 60001 700// 333 4/000 60007 90710 91113 555 60005=
07134 04670 70406 10139 20076 30216 40338 58005 60001 700// 333 4/001 60007 90710 91112 555 60005=
07139 04568 80309 10126 20068 30165 40342 57006 60001 700// 333 4/000 60007 90710 91114 555 60005=
07140 04660 /0310 10139 20053 30178 40332 57007 60001 700// 333 4//// 60007 90710 91117 555 60005=
07143 04669 /3607 10139 20070 30145 40333 58008 60001 700// 333 4/000 60007 90710 91114 555 60005=
07145 04969 /0409 10138 20049 30125 40336 58008 60001 700// 333 4//// 60007 90710 91114 555 60005=
07146 04668 /3606 10143 20059 30138 40333 58008 60001 700// 333 4/000 60007 90710 91113 555 60005=
07149 02668 20208 10153 20031 30225 40334 58009 60001 81101 333 60007 81840 90710 91117 93100 555 60005=
07150 04969 /3507 10142 20047 30278 40338 58009 60001 700// 333 4/000 60007 90710 91116 555 60005=
07153 04970 /0406 10149 20007 30219 40331 58010 60001 700// 333 4/000 60007 90710 91117 555 60005=
07156 04/69 /0307 10153 20058 30240 40335 58008 60001 700// 333 4/000 60007 90710 91114 555 60005=
07157 02565 10107 10141 20041 30202 40338 58009 60001 81101 333 60007 81831 90710 91119 93100 555 60005=
07166 04966 /0312 10132 20015 30128 40331 56011 60001 700// 333 4/000 60007 90710 91118 555 60005=
07168 04968 /0408 10135 20018 30183 40327 57011 60001 700// 333 4/000 60007 90710 91116 555 60005=
07169 04962 /0710 10148 21040 30157 40324 56011 60001 700// 333 4//// 60007 90710 91116 555 60005=
07180 04983 /0512 10145 21033 30067 40324 58010 60001 700// 333 4/000 60007 90710 91120 555 60005=
07181 04984 /0411 10135 21025 39909 40320 58007 60001 700// 333 4//// 60007 90710 91120 555 60005=
07190 04982 /0409 10147 21010 30139 40322 58014 60001 700// 333 4/000 60007 90710 91116 555 60005=
07200 02570 81103 1//// 2//// 3//// 4//// 6///1 885// 333 6///7 82826 88650 90710 91106 555 6///5=
07201 04484 80404 10126 20089 30242 40346 58003 60001 700// 333 4/000 60007 90710 91107 555 60005=
07203 02981 80606 10134 20089 60001 8807/ 333 60007 90710 91109 92428 555 60005=
07205 04581 80607 10136 20088 30290 40344 58003 60001 700// 333 4/000 60007 90710 91110 555 60005=
07207 06/// /0511 10146 20079 30287 40339 58005 60001 333 4//// 60007 90710 91117 555 60005=
07217 04685 70608 10146 20072 30330 40334 58008 60001 700// 333 4/000 60007 90710 91115 555 60005=
07222 04668 70609 10143 20059 30300 40332 58006 60001 700// 333 4/000 60007 90710 91116 555 60005=
07230 04/69 /0308 10143 20059 30275 40334 58007 69921 700// 333 4/000 60007 90710 91113 555 60005=
07235 04670 /0409 10150 20055 30271 40334 58008 60001 700// 333 4/000 60007 90710 91115 555 60005=
07240 04963 /0611 10143 20043 30189 40325 58008 60001 700// 333 4/000 60007 90710 91119 555 60005=
07245 04/69 /0310 10149 20037 30168 40325 58008 60001 700// 333 4/000 60007 90710 91117 555 60005=
07247 04970 /0209 10161 21024 30214 40315 58012 60001 700// 333 4//// 60007 90710 91118 555 60005=
07249 04964 /0612 10144 20016 30175 40327 56007 60001 700// 333 4/000 60007 90710 91119 555 60005=
07255 04/70 /0510 10145 21004 30111 40311 58011 60001 700// 333 4/000 60007 90710 91116 555 60005=
07257 04982 /0612 10138 20001 30096 40310 58010 60001 700// 333 4//// 60007 90710 91119 555 60005=
07260 04970 /3606 10143 21014 30094 40308 57011 60001 700// 333 4/000 60007 90710 91113 555 60005=
07266 04970 /0406 10145 20003 30132 40317 58013 60001 700// 333 4/000 60007 90710 91117 555 60005=
07280 04982 /0511 10133 21035 30033 40307 58007 60001 700// 333 4/000 60007 90710 91120 555 60005=
07283 04969 /0406 10116 21030 39750 40307 58007 60001 700// 333 4/000 60007 90710 91115 555 60005=
07288 06/// /0408 10124 21039 39930 40303 58008 60001 333 4//// 60007 90710 91119 555 60005=
07296 04970 /0908 10112 21006 39829 40312 58006 60001 700// 333 4/000 60007 90710 91118 555 60005=
07299 02/82 30603 10120 21023 39985 40315 58011 60001 80001 333 60007 83076 90710 91110 93100 555 60005=
07300 01968 10107 10144 20086 30290 40329 58008 69921 702// 80001 333 60007 90710 91113 92437 555 60005=
07306 04669 /0409 10148 20073 30217 40325 58009 60001 700// 333 4/000 60007 90710 91118 555 60005=
07314 06/// /0506 10140 20071 30294 40322 58009 60001 333 4//// 60007 90710 91110 555 60005=
07316 04971 /0512 10151 20039 30297 40319 58011 60001 700// 333 4/000 60007 90710 91119 555 60005=
07330 04/70 /0410 10150 20025 30244 40318 58011 60001 700// 333 4/000 60007 90710 91118 555 60005=
07335 04973 /0412 10149 20021 30171 40316 57010 60001 700// 333 4/000 60007 90710 91119 555 60005=
07354 04982 /0410 10146 20001 30122 40312 58009 60001 700// 333 4/000 60007 90710 91119 555 60005=
07361 04/69 /0806 10124 21015 39865 40302 57007 60001 700// 333 4/000 60007 90710 91114 555 60005=
07374 04/69 /3404 10118 20011 30004 40308 57009 60001 700// 333 4/000 60007 90710 91113 555 60005=
07379 04969 /0704 10120 20001 30014 40307 58007 60001 700// 333 4/000 60007 90710 91108 555 60005=
07385 04/68 /0504 10122 20009 30040 40305 57005 60001 700// 333 4/000 60007 90710 91110 555 60005=
07386 04969 /0410 10132 21019 30070 40306 58003 60001 700// 333 4/000 60007 90710 91119 555 60005=
07412 04974 /0411 10153 20010 30272 40310 58011 60001 700// 333 4//// 60007 90710 91117 555 60005=
07434 04982 /0805 10130 21003 39817 40297 57009 60001 700// 333 4//// 60007 90710 91115 555 60005=
07438 04/69 /0502 10150 21016 30155 40296 57011 60001 700// 333 4/000 60007 90710 91107 555 60005=
07460 04972 /0305 10112 21019 39910 40303 56009 60001 700// 333 4/000 60007 90710 91111 555 60005=
07471 04970 /0802 10091 21025 39313 4//// 58005 60001 700// 333 4/000 60007 90710 91107 555 60005=
07475 04969 /3104 10107 21017 39825 40301 57010 60001 700// 333 4/000 60007 90710 91109 555 60005=
07480 04969 /3303 10128 20005 30060 40300 58009 60001 700// 333 4/000 60007 90710 91108 555 60005=
07481 02982 03303 10118 21004 30010 40301 58009 60001 333 60007 90710 91109 93100 555 60005=
07482 04/70 /1702 10121 21008 39999 40304 58008 60001 700// 333 4/000 60007 90710 91108 555 60005=
07486 04969 /3508 10117 20004 39831 40293 56008 60001 700// 333 4/000 60007 90710 91114 555 60005=
07487 06/// /3503 10133 20000 30022 40287 56019 60001 333 4//// 60007 90710 91107 555 60005=
07490 04968 /2810 10115 20000 39747 40289 56013 60001 700// 333 4/000 60007 90710 91117 555 60005=
07491 04365 /3406 10126 20013 30012 40296 57015 60001 700// 333 4/000 60007 90710 91111 555 60005=
07497 06/// /0512 10164 21104 39257 48587 56016 60001 333 4/000 60007 90710 91129 555 60005=
07500 02965 02908 10141 20067 30269 40303 58008 60001 333 60007 90710 91113 92437 555 60005=
07503 04970 /2707 10135 20054 30258 40306 58005 60001 700// 333 4//// 60007 90710 91111 555 60005=
07510 04983 /0508 10152 20013 30243 40301 58012 60001 700// 333 4/000 60007 90710 91114 555 60005=
07524 04969 /1103 10148 20020 30213 40297 57010 60001 700// 333 4/000 60007 90710 91112 555 60005=
07530 04969 /1703 10155 20023 30236 40299 58011 60001 700// 333 4/000 60007 90710 91108 555 60005=
07535 04970 /2403 10144 20013 39981 40293 57007 60001 700// 333 4/000 60007 90710 91106 555 60005=
07540 04/70 /2803 10138 20004 30169 40299 58006 60001 700// 333 4/000 60007 90710 91108 555 60005=
07549 04969 /2602 10118 21036 39533 40286 56002 60001 700// 333 4/000 60007 90710 91109 555 60005=
07552 04986 /2604 10129 21004 39603 40284 57003 60001 700// 333 4/000 60007 90710 91108 555 60005=
07554 04970 /3003 10123 21088 39196 4//// 58001 60001 700// 333 4/000 60007 90710 91108 555 60005=
07558 04/70 /2202 10123 21044 39443 40275 58003 60001 700// 333 4/000 60007 90710 91111 555 60005=
07560 04/70 /1807 10069 21048 38514 4//// 51007 60001 700// 333 4//// 60007 90710 91114 555 60005=
07563 04969 /3506 10163 20012 30227 40285 58009 60001 700// 333 4/000 60007 90710 91114 555 60005=
07570 04/70 /1305 10162 21034 39956 40289 57010 60001 700// 333 4//// 60007 90710 91109 555 60005=
07577 04/69 /0311 10147 21002 30196 40286 58013 60001 700// 333 4/000 60007 90710 91119 555 60005=
07579 04969 /2906 10160 20009 30218 40284 58007 60001 700// 333 4//// 60007 90710 91112 555 60005=
07586 06/// /2703 10166 21011 30155 40282 58007 60001 333 4//// 60007 90710 91108 555 60005=
07588 04970 /2307 10154 21035 39725 40266 58008 60001 700// 333 4/000 60007 90710 91112 555 60005=
07591 04/70 /0216 10162 21182 39246 4//// 58007 60001 700// 333 4//// 60007 91029 90710 91130 555 60005=
07602 04569 /3009 10127 20078 30219 40306 58004 69921 700// 333 4/000 60007 90710 91114 555 60005=
07603 02760 10903 10155 20016 30261 40299 58009 60001 81100 333 60007 81850 90710 91108 555 60005=
07607 04969 /3101 10149 21001 30228 40300 58010 60001 700// 333 4/000 60007 90710 91106 555 60005=
07610 04982 /3004 10142 20027 30075 40295 56010 60001 700// 333 4/000 60007 90710 91109 555 60005=
07621 04982 /3504 10134 20014 39857 40291 57006 60001 700// 333 4/000 60007 90710 91115 555 60005=
07622 04/68 /3505 10143 20009 30142 40297 58007 60001 700// 333 4/000 60007 90710 91107 555 60005=
07627 04969 /0402 10141 21020 39793 40285 58011 60001 700// 333 4/000 60007 90710 91108 555 60005=
07628 04970 /3404 10143 21010 30065 40294 58009 60001 700// 333 4//// 60007 90710 91109 555 60005=
07630 04981 /3603 10141 20003 30114 40295 58010 60001 700// 333 4/000 60007 90710 91108 555 60005=
07632 04/70 /2403 10141 21015 30091 40297 57007 60001 700// 333 4//// 60007 90710 91107 555 60005=
07635 04969 /2909 10154 21021 30136 40289 58012 60001 700// 333 4//// 60007 90710 91115 555 60005=
07638 04986 /2107 10162 21005 30269 40288 58011 60001 700// 333 4/000 60007 90710 91118 555 60005=
07641 02975 01804 10149 20003 30195 40288 58007 60001 333 60007 90710 91109 92428 555 60005=
07643 04985 /1306 10152 21002 30277 40287 58009 60001 700// 333 4//// 60007 90710 91109 555 60005=
07645 06/// /0606 10173 21014 30209 40283 58008 60001 333 4/000 60007 90710 91113 555 60005=
07646 04983 /0604 10166 20011 30157 40283 58006 60001 700// 333 4//// 60007 90710 91112 555 60005=
07647 04969 /3105 10169 21008 30252 40281 58008 60001 700// 333 4//// 60007 90710 91116 555 60005=
07648 04985 /2903 10168 21004 30211 40282 58007 60001 700// 333 4//// 60007 90710 91110 555 60005=
07650 04981 /2605 10152 20020 30246 40285 58006 60001 700// 333 4/000 60007 90710 91116 555 60005=
07661 06/// /2409 10166 20036 30118 40283 57005 60001 333 4//// 60007 90710 91113 555 60005=
07666 06/// /0812 10133 20000 30235 40284 58011 60001 333 4//// 60007 90710 91118 555 60005=
07667 04969 /1806 10163 20027 30277 40282 56004 60001 700// 333 4//// 60007 90710 91112 555 60005=
07675 04/81 /2902 10182 21011 30176 40274 58012 60001 700// 333 4/000 60007 90710 91105 555 60005=
07684 04969 /1706 10166 20002 30275 40280 58004 60001 700// 333 4//// 60007 90710 91110 555 60005=
07690 02982 01904 10153 20034 30248 40279 58005 60001 333 60007 90710 91106 555 60005=
07747 04982 /1010 10159 20004 30238 40291 56005 60001 700// 333 4/000 60007 90710 91121 555 60005=
07749 06/// /0508 10148 20033 30191 40295 50002 60001 333 4//// 60007 90710 91116 555 60005=
07753 02980 20431 10125 20040 30078 40253 58007 60001 80001 333 60007 82070 90710 91144 92458 555 60005=
07754 04983 /0117 10155 20036 30186 40256 57001 60001 700// 333 4//// 60007 91029 90710 91132 555 60005=
07761 04984 /2309 10165 20069 30232 40243 58006 60001 700// 333 4/000 60007 90710 91111 555 60005=
07765 04969 /0418 10150 20052 30245 40266 58003 60001 700// 333 4//// 60007 90710 91128 555 60005=
07770 02570 40520 10148 20056 30108 40247 51005 60001 84600 333 60007 84726 91035 90710 91139 92448 555 60005=
07775 02970 00225 10165 20045 30172 40261 58006 60001 333 60007 90710 91134 92448 555 60005=
07780 04967 /0616 10167 20053 30220 40248 53004 60001 700// 333 4//// 60007 91027 90710 91130 555 60005=
07785 01568 10715 10137 20053 30141 40278 58003 60001 702// 81100 333 60007 90710 91121 92437 92437 555 60005=
07790 04980 /3511 10152 20045 30264 40279 58006 60001 700// 333 4/000 60007 90710 91120 555 60005=
08001 02975 10504 10160 20044 30203 40284 58009 60001 80001 333 60007=
08002 06/80 /0202 10151 20028 30155 40280 58010 60001 333 60007=
08008 02875 10104 10144 20010 39755 40282 58004 60001 80001 333 60007=
08011 02575 11011 10142 20062 30145 40301 58006 60001 81101 333 60007=
08014 12980 00805 10138 20082 30290 40298 57004 60001 80000=
08015 02570 10905 10144 20044 39891 40295 58006 60001 81100 333 60007=
08021 02582 10406 10150 20079 30308 40310 58008 60001 81200 333 60007=
08023 01568 20107 10125 20078 30240 40312 58005 60001 70211 82800 333 60007=
08025 02675 62906 10141 20077 30260 40308 57010 60001 86800 333 60007=
08027 12575 13008 10103 20072 39989 40303 58002 60001 81100=
08029 12680 23108 10147 20055 30295 40305 56006 60001 82500=
08042 02982 10302 10154 20061 39837 40270 58003 60001 80001 333 60007=
08044 02965 02805 10181 20043 30134 40263 58004 60001 80000 333 60007=
08045 02982 00705 10178 20053 39963 40268 58002 60001 80000 333 60007=
08048 02970 03602 10172 20003 30092 40267 58014 60001 80000 333 60007=
08053 02980 12705 10157 21043 39624 40266 58018 60001 80001 333 60007=
08055 02989 11205 10110 21067 39215 48581 58009 60001 80001 333 60007=
08075 12580 10515 10096 21012 39240 42881 56010 60001 81100=
08080 02570 50505 10117 20019 39689 40295 58010 60001 85500 333 60007=
08084 02681 22606 10134 20019 39856 40288 58014 60001 82100 333 60007=
08094 02688 12104 10130 20004 39628 40280 58001 60001 81100 333 60007=
08130 06/70 /0404 10126 20016 39496 40276 58011 60001 333 60007=
08140 12980 00706 10093 21026 39290 48576 58007 60001 80000=
08141 02980 03503 10116 21009 39415 40273 58010 60001 80000 333 60007=
08148 06/70 /0605 10108 21049 39025 48578 58008 60001 333 60007=
08157 12570 10402 10124 21026 39369 42886 58007 60001 81100=
08160 02680 13203 10136 20002 39982 40292 58010 60001 81100 333 60007=
08171 02970 02604 10144 20020 30053 40292 58010 60001 80000 333 60007=
08175 02680 31809 10178 20017 30190 40281 58005 60001 82830 333 60007=
08181 02580 11117 10167 20027 30281 40288 57002 69901 81100 333 60007=
08184 02980 00406 10168 21004 30122 40276 58005 60001 80000 333 60007=
08210 02470 11705 10111 21042 38967 48576 58005 60001 81100 333 60007=
08213 02570 13405 10113 21044 39105 48575 58007 60001 81100 333 60007=
08215 12482 21603 10087 21029 38172 48562 54000 60001 82100=
08221 02980 11902 10136 21013 39589 40270 58010 60001 81800 333 60007=
08223 12880 11004 10128 21011 39469 40271 58008 60001 81100=
08224 12682 10000 10126 21017 39549 40273 58009 60001 81100=
08226 02770 13505 10124 21015 39417 40260 58010 60001 81100 333 60007=
08231 02670 22602 10133 21049 39169 42877 58013 60001 82100 333 60007=
08232 02570 10504 10119 21035 39047 48581 57009 60001 81200 333 60007=
08233 06/70 /3203 10119 21016 39247 42886 58012 60001 333 60007=
08235 06/70 /0604 10126 21041 39222 42878 58014 60001 333 60007=
08238 01758 20704 10193 21007 30226 40286 58007 60001 70400 81460 333 60007=
08261 02980 01207 10163 21028 39801 40261 58005 69901 80000 333 69907=
08272 06/70 /1309 10149 21025 39661 40266 58013 60001 333 60007=
08280 12675 30612 10122 21028 39444 40266 57014 60001 83400=
08284 02682 10614 10159 20000 30210 40286 57002 60001 81101 333 60007=
08286 06/70 /0806 10172 21001 30232 40284 58001 60001 333 60007=
08306 02580 40417 10157 20056 30251 40257 50000 60001 83805 333 60007=
08314 02578 70318 10146 20077 30146 40249 50000 60001 85806 333 60007=
08330 02970 00809 10187 20033 30032 40259 58006 60001 80000 333 60007=
08348 02975 00809 10142 21032 39532 40265 58013 60001 80000 333 60007=
08359 02570 30811 10171 20015 30167 40265 58007 69961 83800 333 60007=
08360 02582 10718 10172 20008 30230 40267 58006 60001 81160 333 60007=
08373 02670 40317 10165 20035 30240 40261 58002 60001 84800 333 60007=
08383 02468 10712 10181 20024 30228 40252 58006 60001 81100 333 60007=
08391 02680 10811 10181 21001 30217 40254 58009 60001 81100 333 60007=
08397 12780 21006 10172 20016 30143 40248 58010 60001 82100=
08410 02984 00714 10183 21026 30146 40256 58015 60001 80000 333 60007=
08417 02969 01105 10152 21032 39573 40248 58012 60001 80000 333 60007=
08419 02780 12103 10147 21027 39575 40239 58012 60001 81500 333 60007=
08429 12984 31011 10162 20007 30179 40269 57005 60001 83600=
08430 02689 30908 10178 21005 30192 40266 58014 60001 83500 333 60007=
08433 02682 30521 10167 20051 30264 40268 58005 60001 82801 333 60007=
08451 02686 20807 10189 20030 30211 40244 58008 60001 82500 333 60007=
08482 02681 21115 10174 20036 30255 40263 50000 60001 82830 333 60007=
08487 02784 40716 10177 20008 30231 40256 58010 60001 83801 333 60007=
08495 16519 /1030 10119 20091 30246 40252 51005 69941 91150 333 84/23 85/56 90710 91143 91043 555 7/097=



SMUS00 KWBC 211200
AAXX 21124